createdAt,value
2023-03-19T00:05:10.150Z,0
2023-03-19T00:20:10.194Z,0
2023-03-19T00:35:10.118Z,0
2023-03-19T00:50:10.142Z,0
2023-03-19T01:05:10.119Z,0
2023-03-19T01:20:10.138Z,0
2023-03-19T01:35:10.043Z,0
2023-03-19T01:50:10.083Z,1
2023-03-19T02:05:10.011Z,0
2023-03-19T02:20:10.048Z,0
2023-03-19T02:35:09.986Z,0
2023-03-19T02:50:09.980Z,0
2023-03-19T03:05:09.959Z,0
2023-03-19T03:20:09.946Z,0
2023-03-19T03:35:09.900Z,0
2023-03-19T03:50:09.910Z,0
2023-03-19T04:05:09.876Z,0
2023-03-19T04:20:09.903Z,0
2023-03-19T04:35:09.839Z,0
2023-03-19T04:50:09.873Z,0
2023-03-19T05:05:09.848Z,0
2023-03-19T05:20:09.817Z,0
2023-03-19T05:35:09.780Z,0
2023-03-19T05:50:09.803Z,4
2023-03-19T06:05:09.719Z,0
2023-03-19T06:20:09.766Z,0
2023-03-19T06:35:09.704Z,1
2023-03-19T06:50:09.735Z,0
2023-03-19T07:05:09.764Z,0
2023-03-19T07:20:09.674Z,0
2023-03-19T07:35:09.649Z,0
2023-03-19T07:50:09.665Z,0
2023-03-19T08:05:09.597Z,0
2023-03-19T08:20:09.650Z,0
2023-03-19T08:35:09.559Z,0
2023-03-19T08:50:09.568Z,0
2023-03-19T09:05:09.536Z,0
2023-03-19T09:20:09.552Z,0
2023-03-19T09:35:09.511Z,0
2023-03-19T09:50:09.499Z,0
2023-03-19T10:05:09.461Z,0
2023-03-19T10:20:09.501Z,0
2023-03-19T10:35:09.421Z,0
2023-03-19T10:50:09.406Z,0
2023-03-19T11:05:09.370Z,0
2023-03-19T11:20:09.425Z,0
2023-03-19T11:35:09.345Z,0
2023-03-19T11:50:09.347Z,0
2023-03-19T12:05:09.286Z,0
2023-03-19T12:20:09.301Z,0
2023-03-19T12:35:09.265Z,0
2023-03-19T12:50:09.282Z,0
2023-03-19T13:05:09.261Z,0
2023-03-19T13:20:09.220Z,0
2023-03-19T13:35:09.175Z,0
2023-03-19T13:50:09.268Z,0
2023-03-19T14:05:09.096Z,0
2023-03-19T14:20:09.271Z,0
2023-03-19T14:35:09.078Z,0
2023-03-19T14:50:09.087Z,0
2023-03-19T15:05:09.097Z,2
2023-03-19T15:20:09.022Z,2
2023-03-19T15:35:09.150Z,5
2023-03-19T15:50:10.410Z,0
2023-03-19T16:05:21.981Z,5
2023-03-19T16:20:08.948Z,0
2023-03-19T16:35:08.869Z,34
2023-03-19T16:50:08.877Z,0
2023-03-19T17:05:08.829Z,84
2023-03-19T17:20:08.824Z,78
2023-03-19T17:35:08.783Z,183
2023-03-19T17:50:08.799Z,47
2023-03-19T18:05:08.749Z,16
2023-03-19T18:20:08.760Z,0
2023-03-19T18:35:08.692Z,0
2023-03-19T18:50:08.723Z,0
2023-03-19T19:05:08.653Z,0
2023-03-19T19:20:08.681Z,0
2023-03-19T19:35:08.625Z,0
2023-03-19T19:50:08.605Z,0
2023-03-19T20:05:08.583Z,195
2023-03-19T20:20:08.632Z,200
2023-03-19T20:35:08.558Z,163
2023-03-19T20:50:11.340Z,252
2023-03-19T21:05:08.500Z,124
2023-03-19T21:20:08.542Z,41
2023-03-19T21:35:08.476Z,1
2023-03-19T21:50:08.509Z,0
2023-03-19T22:05:08.439Z,0
2023-03-19T22:20:08.458Z,0
2023-03-19T22:35:08.431Z,195
2023-03-19T22:50:08.431Z,207
2023-03-19T23:05:08.408Z,11
2023-03-19T23:20:08.459Z,10
2023-03-19T23:35:08.360Z,128
2023-03-19T23:50:08.373Z,206
